createdAt,value
2023-05-10T00:00:36.663Z,9.80
2023-05-10T00:02:37.865Z,9.80
2023-05-10T00:04:30.950Z,10.00
2023-05-10T00:06:38.517Z,9.90
2023-05-10T00:08:33.051Z,10.00
2023-05-10T00:10:26.384Z,9.70
2023-05-10T00:12:19.544Z,10.30
2023-05-10T00:14:12.904Z,9.90
2023-05-10T00:16:06.639Z,11.20
2023-05-10T00:18:00.476Z,9.90
2023-05-10T00:19:53.890Z,10.00
2023-05-10T00:21:46.706Z,10.20
2023-05-10T00:23:39.581Z,10.20
2023-05-10T00:25:32.426Z,9.70
2023-05-10T00:27:25.424Z,10.90
2023-05-10T00:29:18.322Z,9.10
2023-05-10T00:31:11.275Z,10.20
2023-05-10T00:33:04.300Z,9.60
2023-05-10T00:34:57.378Z,9.30
2023-05-10T00:36:50.218Z,9.80
2023-05-10T00:38:43.066Z,9.60
2023-05-10T00:40:38.079Z,10.00
2023-05-10T00:42:32.445Z,9.90
2023-05-10T00:44:25.491Z,9.30
2023-05-10T00:46:18.803Z,10.60
2023-05-10T00:48:12.006Z,8.80
2023-05-10T00:50:06.494Z,9.10
2023-05-10T00:51:59.542Z,9.70
2023-05-10T00:53:52.739Z,9.90
2023-05-10T00:55:45.953Z,9.30
2023-05-10T00:57:39.620Z,9.30
2023-05-10T00:59:33.283Z,10.00
2023-05-10T01:01:26.573Z,8.60
2023-05-10T01:03:19.567Z,8.90
2023-05-10T01:05:13.273Z,9.40
2023-05-10T01:07:06.608Z,9.30
2023-05-10T01:08:59.460Z,8.80
2023-05-10T01:10:53.623Z,8.90
2023-05-10T01:12:48.526Z,9.60
2023-05-10T01:14:41.787Z,9.80
2023-05-10T01:16:43.274Z,9.40
2023-05-10T01:18:39.283Z,9.00
2023-05-10T01:20:39.307Z,9.20
2023-05-10T01:22:58.666Z,9.20
2023-05-10T01:25:09.811Z,8.60
2023-05-10T01:27:22.415Z,8.30
2023-05-10T01:29:26.422Z,8.10
2023-05-10T01:31:28.628Z,8.40
2023-05-10T01:33:42.776Z,8.80
2023-05-10T01:35:46.643Z,9.20
2023-05-10T01:37:58.125Z,8.50
2023-05-10T01:40:09.292Z,8.40
2023-05-10T01:42:05.622Z,9.10
2023-05-10T01:44:19.776Z,8.80
2023-05-10T01:46:18.919Z,8.50
2023-05-10T01:48:15.143Z,8.50
2023-05-10T01:50:16.345Z,8.90
2023-05-10T01:52:13.586Z,8.00
2023-05-10T01:54:08.259Z,8.60
2023-05-10T01:56:03.870Z,8.50
2023-05-10T01:58:10.867Z,8.80
2023-05-10T02:00:05.626Z,8.40
2023-05-10T02:02:09.212Z,8.30
2023-05-10T02:04:04.409Z,9.00
2023-05-10T02:05:58.511Z,9.20
2023-05-10T02:07:53.099Z,8.60
2023-05-10T02:09:50.039Z,8.90
2023-05-10T02:11:45.244Z,9.00
2023-05-10T02:13:40.545Z,9.10
2023-05-10T02:15:35.238Z,8.50
2023-05-10T02:17:29.810Z,9.00
2023-05-10T02:19:24.211Z,8.00
2023-05-10T02:21:19.100Z,8.30
2023-05-10T02:23:12.767Z,8.80
2023-05-10T02:25:07.908Z,8.40
2023-05-10T02:27:02.939Z,8.50
2023-05-10T02:28:58.277Z,9.20
2023-05-10T02:30:53.096Z,9.10
2023-05-10T02:32:47.549Z,8.60
2023-05-10T02:34:41.726Z,8.70
2023-05-10T02:36:35.385Z,8.60
2023-05-10T02:38:29.269Z,8.70
2023-05-10T02:40:26.807Z,9.10
2023-05-10T02:42:26.211Z,8.50
2023-05-10T02:44:21.943Z,9.70
2023-05-10T02:46:14.896Z,8.60
2023-05-10T02:48:08.094Z,8.60
2023-05-10T02:50:01.480Z,8.40
2023-05-10T02:52:00.266Z,8.80
2023-05-10T02:53:56.296Z,8.40
2023-05-10T02:55:53.722Z,9.10
2023-05-10T02:57:59.800Z,8.90
2023-05-10T02:59:52.951Z,8.50
2023-05-10T03:01:45.846Z,8.70
2023-05-10T03:03:39.474Z,8.60
2023-05-10T03:05:32.639Z,7.90
2023-05-10T03:07:27.605Z,8.40
2023-05-10T03:09:22.203Z,8.10
2023-05-10T03:11:40.132Z,8.90
2023-05-10T03:13:44.959Z,8.50
2023-05-10T03:15:52.193Z,8.60
2023-05-10T03:18:03.407Z,8.50
2023-05-10T03:19:59.438Z,9.20
2023-05-10T03:21:55.091Z,8.30
2023-05-10T03:23:57.724Z,8.50
2023-05-10T03:25:51.830Z,8.80
2023-05-10T03:27:46.281Z,8.90
2023-05-10T03:29:40.676Z,8.10
2023-05-10T03:31:33.940Z,8.50
2023-05-10T03:33:27.176Z,8.00
2023-05-10T03:35:20.226Z,8.30
2023-05-10T03:37:13.074Z,8.20
2023-05-10T03:39:06.024Z,8.20
2023-05-10T03:40:59.622Z,8.90
2023-05-10T03:42:52.528Z,9.10
2023-05-10T03:44:45.386Z,8.60
2023-05-10T03:46:38.373Z,9.70
2023-05-10T03:48:31.783Z,8.40
2023-05-10T03:50:25.041Z,8.10
2023-05-10T03:52:17.991Z,8.20
2023-05-10T03:54:11.353Z,8.60
2023-05-10T03:56:04.397Z,8.50
2023-05-10T03:57:57.443Z,8.30
2023-05-10T03:59:51.372Z,9.50
2023-05-10T04:01:44.275Z,8.90
2023-05-10T04:03:37.837Z,8.50
2023-05-10T04:05:31.566Z,8.50
2023-05-10T04:07:24.450Z,8.90
2023-05-10T04:09:18.220Z,8.30
2023-05-10T04:11:12.795Z,8.30
2023-05-10T04:13:05.718Z,8.40
2023-05-10T04:14:58.695Z,8.80
2023-05-10T04:16:51.726Z,8.20
2023-05-10T04:18:44.588Z,8.20
2023-05-10T04:20:37.659Z,8.60
2023-05-10T04:22:30.597Z,8.60
2023-05-10T04:24:23.438Z,7.70
2023-05-10T04:26:16.280Z,8.50
2023-05-10T04:28:09.739Z,8.90
2023-05-10T04:30:03.304Z,8.20
2023-05-10T04:31:57.684Z,9.00
2023-05-10T04:33:51.148Z,8.50
2023-05-10T04:35:43.987Z,8.90
2023-05-10T04:37:37.682Z,8.70
2023-05-10T04:39:30.496Z,8.70
2023-05-10T04:41:23.349Z,8.50
2023-05-10T04:43:16.188Z,9.00
2023-05-10T04:45:10.753Z,8.70
2023-05-10T04:47:04.247Z,8.90
2023-05-10T04:48:57.083Z,8.80
2023-05-10T04:50:49.929Z,8.60
2023-05-10T04:52:42.770Z,8.10
2023-05-10T04:54:35.927Z,8.70
2023-05-10T04:56:28.768Z,8.20
2023-05-10T04:58:22.027Z,8.50
2023-05-10T05:00:15.709Z,8.10
2023-05-10T05:02:08.967Z,9.10
2023-05-10T05:04:02.566Z,8.80
2023-05-10T05:05:55.455Z,8.40
2023-05-10T05:07:48.404Z,8.80
2023-05-10T05:09:41.258Z,8.80
2023-05-10T05:11:34.200Z,8.40
2023-05-10T05:13:27.214Z,8.60
2023-05-10T05:15:20.835Z,8.90
2023-05-10T05:17:14.280Z,8.40
2023-05-10T05:19:07.323Z,9.20
2023-05-10T05:21:00.381Z,8.50
2023-05-10T05:22:53.321Z,8.30
2023-05-10T05:24:46.227Z,8.30
2023-05-10T05:26:39.524Z,8.20
2023-05-10T05:28:35.140Z,8.50
2023-05-10T05:30:28.093Z,8.20
2023-05-10T05:32:20.968Z,8.40
2023-05-10T05:34:13.789Z,8.60
2023-05-10T05:36:07.320Z,8.90
2023-05-10T05:38:00.923Z,8.80
2023-05-10T05:39:55.492Z,7.70
2023-05-10T05:41:48.433Z,8.80
2023-05-10T05:43:41.287Z,7.70
2023-05-10T05:45:34.140Z,8.40
2023-05-10T05:47:27.091Z,8.90
2023-05-10T05:49:20.199Z,8.30
2023-05-10T05:51:13.077Z,8.70
2023-05-10T05:53:06.015Z,8.90
2023-05-10T05:54:58.867Z,9.50
2023-05-10T05:56:51.817Z,8.40
2023-05-10T05:58:45.891Z,7.60
2023-05-10T06:00:38.753Z,8.40
2023-05-10T06:02:31.818Z,8.70
2023-05-10T06:04:25.078Z,8.40
2023-05-10T06:06:17.997Z,8.30
2023-05-10T06:08:11.363Z,8.60
2023-05-10T06:10:04.822Z,8.30
2023-05-10T06:11:58.288Z,7.80
2023-05-10T06:13:52.095Z,7.50
2023-05-10T06:15:45.703Z,8.20
2023-05-10T06:17:40.736Z,8.50
2023-05-10T06:19:35.106Z,8.50
2023-05-10T06:21:28.458Z,8.00
2023-05-10T06:23:21.957Z,9.30
2023-05-10T06:25:16.159Z,8.60
2023-05-10T06:27:09.571Z,8.40
2023-05-10T06:29:02.586Z,7.30
2023-05-10T06:30:55.432Z,8.40
2023-05-10T06:32:48.344Z,7.90
2023-05-10T06:34:41.532Z,8.20
2023-05-10T06:36:34.990Z,8.50
2023-05-10T06:38:28.552Z,8.90
2023-05-10T06:40:21.890Z,7.90
2023-05-10T06:42:14.774Z,8.40
2023-05-10T06:44:11.911Z,8.30
2023-05-10T06:46:04.781Z,8.00
2023-05-10T06:48:00.884Z,7.80
2023-05-10T06:50:05.556Z,7.70
2023-05-10T06:51:58.549Z,8.00
2023-05-10T06:53:51.494Z,8.20
2023-05-10T06:55:44.845Z,8.00
2023-05-10T06:57:38.315Z,8.20
2023-05-10T06:59:31.454Z,8.20
2023-05-10T07:01:24.523Z,8.40
2023-05-10T07:03:17.745Z,8.80
2023-05-10T07:05:10.612Z,8.30
2023-05-10T07:07:03.752Z,8.40
2023-05-10T07:08:56.641Z,8.30
2023-05-10T07:10:49.899Z,8.90
2023-05-10T07:12:43.298Z,9.00
2023-05-10T07:14:36.689Z,7.90
2023-05-10T07:16:29.817Z,8.20
2023-05-10T07:18:22.851Z,8.40
2023-05-10T07:20:16.153Z,8.50
2023-05-10T07:22:09.023Z,8.30
2023-05-10T07:24:02.656Z,9.60
2023-05-10T07:25:55.718Z,8.90
2023-05-10T07:27:49.759Z,8.90
2023-05-10T07:29:43.272Z,8.50
2023-05-10T07:31:36.213Z,9.40
2023-05-10T07:33:29.147Z,8.40
2023-05-10T07:35:21.984Z,8.40
2023-05-10T07:37:14.794Z,8.40
2023-05-10T07:39:08.185Z,8.90
2023-05-10T07:41:01.010Z,8.20
2023-05-10T07:42:54.014Z,8.30
2023-05-10T07:44:46.843Z,9.30
2023-05-10T07:46:39.929Z,9.10
2023-05-10T07:48:32.871Z,8.60
2023-05-10T07:50:25.666Z,8.90
2023-05-10T07:52:20.615Z,9.20
2023-05-10T07:54:15.355Z,8.50
2023-05-10T07:56:30.927Z,8.90
2023-05-10T07:58:23.878Z,9.50
2023-05-10T08:00:19.506Z,8.30
2023-05-10T08:02:12.317Z,9.20
2023-05-10T08:04:05.470Z,9.00
2023-05-10T08:05:58.435Z,9.10
2023-05-10T08:07:51.284Z,9.20
2023-05-10T08:09:44.229Z,9.30
2023-05-10T08:11:37.079Z,9.40
2023-05-10T08:13:29.933Z,9.50
2023-05-10T08:15:22.871Z,9.10
2023-05-10T08:17:15.732Z,9.60
2023-05-10T08:19:08.525Z,8.40
2023-05-10T08:21:02.103Z,9.30
2023-05-10T08:22:55.072Z,8.20
2023-05-10T08:24:47.895Z,7.90
2023-05-10T08:26:41.092Z,9.50
2023-05-10T08:28:34.019Z,8.90
2023-05-10T08:30:27.068Z,9.20
2023-05-10T08:32:19.916Z,10.40
2023-05-10T08:34:12.763Z,9.40
2023-05-10T08:36:05.707Z,8.40
2023-05-10T08:37:58.657Z,8.90
2023-05-10T08:39:51.507Z,8.50
2023-05-10T08:41:46.302Z,7.70
2023-05-10T08:43:40.104Z,8.30
2023-05-10T08:45:34.588Z,8.70
2023-05-10T08:47:28.995Z,8.10
2023-05-10T08:49:22.801Z,8.70
2023-05-10T08:51:18.969Z,8.90
2023-05-10T08:53:14.187Z,8.40
2023-05-10T08:55:07.385Z,7.70
2023-05-10T08:57:00.634Z,7.30
2023-05-10T08:58:53.678Z,7.50
2023-05-10T09:00:46.962Z,8.40
2023-05-10T09:02:40.412Z,8.20
2023-05-10T09:04:33.948Z,7.30
2023-05-10T09:06:27.486Z,7.00
2023-05-10T09:08:21.293Z,8.20
2023-05-10T09:10:14.651Z,7.70
2023-05-10T09:12:12.001Z,7.90
2023-05-10T09:14:05.565Z,7.30
2023-05-10T09:16:06.985Z,7.10
2023-05-10T09:18:06.795Z,7.30
2023-05-10T09:20:01.255Z,6.90
2023-05-10T09:21:54.151Z,7.20
2023-05-10T09:23:48.622Z,7.50
2023-05-10T09:25:44.861Z,7.70
2023-05-10T09:27:39.833Z,7.50
2023-05-10T09:29:44.714Z,7.80
2023-05-10T09:31:52.570Z,7.70
2023-05-10T09:33:50.564Z,7.20
2023-05-10T09:37:37.274Z,6.50
2023-05-10T09:39:35.019Z,6.90
2023-05-10T09:41:29.215Z,6.20
2023-05-10T09:43:22.251Z,6.50
2023-05-10T09:45:15.414Z,8.00
2023-05-10T09:47:08.780Z,6.90
2023-05-10T09:49:01.617Z,7.40
2023-05-10T09:50:58.549Z,6.30
2023-05-10T09:53:01.124Z,5.70
2023-05-10T09:54:55.040Z,6.60
2023-05-10T09:56:48.015Z,6.30
2023-05-10T09:58:41.501Z,5.70
2023-05-10T10:00:39.176Z,5.50
2023-05-10T10:02:32.980Z,5.40
2023-05-10T10:04:26.777Z,5.90
2023-05-10T10:06:29.639Z,5.30
2023-05-10T10:08:23.472Z,5.10
2023-05-10T10:10:16.818Z,5.20
2023-05-10T10:12:09.709Z,5.60
2023-05-10T10:14:03.259Z,5.40
2023-05-10T10:15:56.362Z,5.90
2023-05-10T10:17:50.762Z,5.20
2023-05-10T10:19:44.824Z,5.90
2023-05-10T10:21:37.703Z,5.80
2023-05-10T10:23:30.485Z,5.80
2023-05-10T10:25:26.603Z,6.20
2023-05-10T10:27:29.667Z,5.70
2023-05-10T10:29:37.519Z,5.70
2023-05-10T10:31:46.289Z,5.40
2023-05-10T10:33:48.475Z,5.70
2023-05-10T10:35:41.861Z,6.10
2023-05-10T10:37:46.433Z,5.60
2023-05-10T10:39:39.297Z,5.40
2023-05-10T10:41:35.588Z,5.50
2023-05-10T10:43:29.637Z,5.30
2023-05-10T10:45:23.558Z,5.60
2023-05-10T10:47:26.029Z,5.50
2023-05-10T10:49:19.225Z,5.50
2023-05-10T10:51:20.721Z,5.90
2023-05-10T10:53:16.618Z,5.60
2023-05-10T10:55:20.831Z,6.10
2023-05-10T10:57:15.515Z,5.70
2023-05-10T10:59:09.976Z,6.00
2023-05-10T11:01:12.162Z,6.00
2023-05-10T11:03:07.854Z,5.90
2023-05-10T11:05:01.922Z,6.20
2023-05-10T11:07:18.636Z,6.20
2023-05-10T11:09:13.508Z,6.10
2023-05-10T11:11:13.287Z,6.30
2023-05-10T11:13:08.026Z,6.30
2023-05-10T11:15:00.868Z,7.50
2023-05-10T11:16:53.914Z,6.30
2023-05-10T11:19:08.628Z,6.20
2023-05-10T11:21:06.295Z,6.70
2023-05-10T11:22:59.084Z,6.80
2023-05-10T11:24:59.620Z,6.30
2023-05-10T11:26:53.084Z,6.50
2023-05-10T11:28:48.210Z,6.00
2023-05-10T11:30:44.185Z,7.30
2023-05-10T11:32:40.765Z,6.90
2023-05-10T11:34:36.581Z,6.80
2023-05-10T11:36:33.739Z,5.80
2023-05-10T11:38:26.745Z,5.60
2023-05-10T11:40:20.252Z,6.30
2023-05-10T11:42:16.111Z,6.30
2023-05-10T11:44:10.597Z,6.50
2023-05-10T11:46:04.141Z,6.50
2023-05-10T11:47:59.001Z,6.40
2023-05-10T11:49:52.812Z,6.40
2023-05-10T11:51:45.774Z,6.10
2023-05-10T11:53:39.353Z,6.80
2023-05-10T11:55:34.698Z,6.50
2023-05-10T11:57:29.604Z,6.70
2023-05-10T11:59:22.412Z,6.60
2023-05-10T12:01:15.350Z,6.90
2023-05-10T12:03:08.389Z,6.30
2023-05-10T12:05:01.587Z,6.90
2023-05-10T12:06:54.671Z,6.70
2023-05-10T12:08:49.359Z,6.10
2023-05-10T12:10:42.632Z,7.00
2023-05-10T12:12:45.569Z,6.60
2023-05-10T12:14:38.394Z,6.60
2023-05-10T12:16:31.589Z,6.10
2023-05-10T12:18:26.455Z,6.50
2023-05-10T12:20:23.497Z,6.60
2023-05-10T12:22:16.375Z,6.10
2023-05-10T12:24:09.341Z,6.00
2023-05-10T12:26:06.475Z,6.40
2023-05-10T12:30:11.465Z,5.90
2023-05-10T12:32:04.520Z,6.20
2023-05-10T12:33:57.635Z,6.50
2023-05-10T12:35:53.176Z,6.20
2023-05-10T12:37:46.299Z,6.90
2023-05-10T12:39:44.070Z,6.40
2023-05-10T12:41:36.909Z,6.20
2023-05-10T12:43:30.610Z,6.00
2023-05-10T12:45:23.774Z,6.60
2023-05-10T12:47:16.784Z,6.90
2023-05-10T12:49:10.106Z,6.40
2023-05-10T12:51:04.611Z,6.50
2023-05-10T12:52:57.496Z,6.40
2023-05-10T12:54:50.517Z,6.40
2023-05-10T12:56:44.583Z,6.50
2023-05-10T12:58:37.424Z,6.70
2023-05-10T13:00:30.263Z,6.60
2023-05-10T13:02:24.219Z,6.40
2023-05-10T13:04:17.846Z,6.60
2023-05-10T13:06:11.066Z,6.10
2023-05-10T13:08:04.019Z,6.50
2023-05-10T13:09:56.859Z,6.30
2023-05-10T13:11:50.320Z,6.60
2023-05-10T13:13:43.164Z,6.40
2023-05-10T13:15:36.315Z,6.70
2023-05-10T13:17:30.357Z,6.00
2023-05-10T13:19:24.069Z,7.10
2023-05-10T13:21:17.830Z,6.90
2023-05-10T13:23:11.181Z,6.30
2023-05-10T13:25:04.334Z,6.70
2023-05-10T13:26:57.287Z,6.60
2023-05-10T13:28:50.946Z,6.40
2023-05-10T13:30:43.997Z,6.40
2023-05-10T13:32:37.287Z,6.70
2023-05-10T13:34:30.302Z,6.60
2023-05-10T13:36:23.984Z,6.40
2023-05-10T13:38:17.577Z,6.40
2023-05-10T13:40:12.761Z,6.20
2023-05-10T13:42:07.304Z,6.40
2023-05-10T13:44:05.799Z,6.60
2023-05-10T13:45:58.771Z,6.80
2023-05-10T13:47:53.319Z,6.60
2023-05-10T13:49:46.254Z,6.50
2023-05-10T13:51:39.156Z,6.70
2023-05-10T13:53:32.281Z,6.80
2023-05-10T13:56:21.030Z,7.10
2023-05-10T13:59:05.049Z,6.80
2023-05-10T14:00:58.207Z,6.70
2023-05-10T14:02:51.460Z,6.20
2023-05-10T14:04:44.763Z,6.80
2023-05-10T14:06:38.104Z,6.50
2023-05-10T14:08:31.268Z,6.30
2023-05-10T14:10:24.308Z,7.00
2023-05-10T14:12:17.907Z,6.20
2023-05-10T14:14:11.337Z,7.30
2023-05-10T14:16:04.495Z,6.90
2023-05-10T14:17:57.371Z,6.70
2023-05-10T14:19:50.393Z,7.20
2023-05-10T14:21:44.250Z,7.10
2023-05-10T14:23:37.199Z,8.00
2023-05-10T14:25:30.253Z,7.40
2023-05-10T14:27:23.230Z,7.50
2023-05-10T14:29:16.249Z,7.80
2023-05-10T14:31:09.097Z,7.30
2023-05-10T14:33:04.135Z,7.00
2023-05-10T14:34:57.161Z,7.30
2023-05-10T14:36:51.111Z,7.30
2023-05-10T14:38:44.266Z,7.00
2023-05-10T14:40:37.417Z,7.60
2023-05-10T14:42:30.384Z,7.10
2023-05-10T14:44:23.415Z,7.20
2023-05-10T14:46:17.141Z,7.60
2023-05-10T14:48:13.304Z,8.00
2023-05-10T14:50:07.130Z,8.00
2023-05-10T14:52:00.239Z,7.80
2023-05-10T14:54:49.393Z,7.40
2023-05-10T14:57:01.802Z,8.10
2023-05-10T14:58:55.187Z,7.40
2023-05-10T15:00:48.816Z,7.20
2023-05-10T15:02:42.614Z,7.10
2023-05-10T15:04:37.213Z,7.10
2023-05-10T15:06:35.668Z,7.30
2023-05-10T15:08:32.190Z,7.30
2023-05-10T15:10:28.501Z,7.30
2023-05-10T15:12:21.556Z,7.40
2023-05-10T15:14:14.398Z,7.30
2023-05-10T15:16:07.373Z,7.60
2023-05-10T15:18:00.355Z,7.50
2023-05-10T15:19:53.516Z,7.30
2023-05-10T15:21:47.120Z,7.30
2023-05-10T15:23:39.993Z,7.20
2023-05-10T15:25:36.017Z,7.40
2023-05-10T15:27:29.034Z,7.50
2023-05-10T15:29:22.088Z,7.40
2023-05-10T15:31:14.975Z,7.10
2023-05-10T15:33:08.952Z,7.50
2023-05-10T15:35:02.361Z,8.30
2023-05-10T15:36:55.508Z,7.10
2023-05-10T15:38:48.564Z,7.30
2023-05-10T15:40:41.615Z,6.70
2023-05-10T15:42:34.802Z,7.40
2023-05-10T15:44:27.921Z,7.20
2023-05-10T15:46:20.909Z,7.10
2023-05-10T15:48:13.970Z,7.30
2023-05-10T15:50:08.522Z,7.60
2023-05-10T15:52:01.450Z,7.50
2023-05-10T15:54:05.973Z,7.10
2023-05-10T15:56:00.466Z,7.10
2023-05-10T15:57:53.402Z,7.40
2023-05-10T15:59:46.349Z,6.60
2023-05-10T16:01:39.311Z,6.30
2023-05-10T16:03:36.003Z,6.60
2023-05-10T16:07:26.855Z,7.20
2023-05-10T16:09:19.906Z,7.30
2023-05-10T16:11:12.927Z,7.20
2023-05-10T16:13:05.911Z,6.90
2023-05-10T16:14:58.846Z,7.60
2023-05-10T16:16:52.464Z,6.90
2023-05-10T16:18:45.859Z,7.20
2023-05-10T16:20:39.024Z,7.30
2023-05-10T16:22:31.873Z,7.20
2023-05-10T16:24:26.550Z,7.40
2023-05-10T16:26:19.406Z,7.00
2023-05-10T16:28:12.248Z,7.00
2023-05-10T16:30:06.018Z,7.00
2023-05-10T16:31:58.861Z,6.90
2023-05-10T16:33:51.733Z,6.50
2023-05-10T16:35:45.077Z,7.30
2023-05-10T16:37:39.612Z,7.30
2023-05-10T16:39:32.933Z,7.40
2023-05-10T16:41:26.533Z,6.80
2023-05-10T16:43:19.385Z,6.90
2023-05-10T16:45:12.597Z,7.30
2023-05-10T16:47:05.514Z,6.70
2023-05-10T16:48:59.891Z,6.70
2023-05-10T16:50:52.871Z,6.60
2023-05-10T16:52:45.662Z,6.60
2023-05-10T16:54:38.536Z,6.80
2023-05-10T16:56:31.556Z,6.70
2023-05-10T16:58:24.543Z,6.90
2023-05-10T17:00:17.801Z,6.90
2023-05-10T17:02:11.225Z,7.10
2023-05-10T17:04:04.612Z,7.00
2023-05-10T17:05:59.120Z,6.30
2023-05-10T17:07:52.043Z,6.70
2023-05-10T17:09:45.195Z,6.50
2023-05-10T17:11:38.044Z,6.50
2023-05-10T17:13:32.012Z,6.20
2023-05-10T17:15:24.862Z,6.80
2023-05-10T17:17:17.809Z,6.60
2023-05-10T17:19:10.702Z,6.90
2023-05-10T17:21:04.218Z,6.30
2023-05-10T17:22:57.142Z,6.70
2023-05-10T17:24:50.421Z,6.70
2023-05-10T17:26:43.474Z,6.40
2023-05-10T17:28:36.329Z,6.70
2023-05-10T17:30:32.653Z,7.00
2023-05-10T17:32:26.354Z,6.70
2023-05-10T17:34:19.325Z,6.50
2023-05-10T17:36:12.305Z,6.30
2023-05-10T17:38:05.163Z,7.20
2023-05-10T17:39:58.031Z,6.50
2023-05-10T17:41:50.845Z,6.70
2023-05-10T17:43:43.689Z,9.70
2023-05-10T17:45:36.629Z,7.40
2023-05-10T17:47:29.677Z,10.60
2023-05-10T17:49:22.635Z,8.50
2023-05-10T17:51:15.435Z,7.80
2023-05-10T17:53:08.431Z,9.70
2023-05-10T17:55:01.599Z,9.40
2023-05-10T17:56:54.528Z,8.60
2023-05-10T17:58:48.864Z,8.00
2023-05-10T18:00:43.492Z,9.20
2023-05-10T18:02:37.099Z,9.50
2023-05-10T18:04:30.264Z,8.80
2023-05-10T18:06:23.707Z,9.10
2023-05-10T18:08:22.414Z,8.40
2023-05-10T18:10:15.509Z,9.60
2023-05-10T18:12:08.285Z,11.60
2023-05-10T18:14:01.200Z,10.70
2023-05-10T18:15:54.349Z,12.60
2023-05-10T18:17:47.241Z,11.50
2023-05-10T18:19:40.578Z,10.30
2023-05-10T18:21:33.403Z,9.70
2023-05-10T18:23:26.554Z,8.10
2023-05-10T18:25:19.590Z,9.30
2023-05-10T18:27:12.668Z,8.80
2023-05-10T18:29:06.556Z,7.70
2023-05-10T18:30:59.703Z,7.10
2023-05-10T18:32:52.826Z,7.90
2023-05-10T18:34:45.996Z,9.70
2023-05-10T18:36:38.845Z,10.90
2023-05-10T18:38:31.679Z,9.80
2023-05-10T18:40:26.985Z,9.40
2023-05-10T18:42:20.744Z,9.00
2023-05-10T18:44:13.690Z,8.60
2023-05-10T18:46:06.780Z,8.80
2023-05-10T18:47:59.744Z,8.60
2023-05-10T18:49:52.919Z,7.90
2023-05-10T18:51:46.117Z,8.60
2023-05-10T18:53:38.952Z,8.50
2023-05-10T18:55:31.753Z,8.70
2023-05-10T18:57:24.638Z,8.70
2023-05-10T18:59:17.587Z,8.20
2023-05-10T19:01:10.563Z,8.70
2023-05-10T19:03:04.015Z,8.50
2023-05-10T19:04:59.750Z,8.40
2023-05-10T19:06:53.066Z,8.00
2023-05-10T19:08:45.887Z,7.90
2023-05-10T19:10:38.857Z,8.00
2023-05-10T19:12:31.726Z,7.30
2023-05-10T19:14:25.777Z,8.40
2023-05-10T19:16:18.894Z,8.10
2023-05-10T19:18:13.828Z,9.00
2023-05-10T19:20:08.105Z,7.50
2023-05-10T19:22:03.921Z,8.30
2023-05-10T19:23:59.228Z,8.40
2023-05-10T19:25:52.237Z,8.00
2023-05-10T19:27:45.227Z,8.20
2023-05-10T19:29:38.379Z,7.90
2023-05-10T19:31:32.124Z,7.80
2023-05-10T19:33:25.089Z,7.80
2023-05-10T19:35:18.569Z,8.10
2023-05-10T19:37:12.472Z,7.60
2023-05-10T19:39:05.472Z,7.70
2023-05-10T19:40:59.340Z,7.90
2023-05-10T19:42:52.391Z,7.50
2023-05-10T19:44:46.619Z,8.10
2023-05-10T19:46:39.690Z,7.50
2023-05-10T19:48:32.779Z,7.20
2023-05-10T19:50:26.336Z,7.90
2023-05-10T19:52:19.178Z,7.30
2023-05-10T19:54:12.022Z,7.80
2023-05-10T19:56:07.431Z,7.20
2023-05-10T19:58:03.153Z,8.00
2023-05-10T19:59:55.989Z,7.20
2023-05-10T20:01:48.833Z,7.10
2023-05-10T20:03:41.699Z,7.40
2023-05-10T20:05:34.633Z,7.20
2023-05-10T20:07:27.474Z,7.60
2023-05-10T20:09:20.726Z,7.10
2023-05-10T20:11:13.581Z,8.20
2023-05-10T20:13:06.424Z,7.70
2023-05-10T20:14:59.472Z,8.60
2023-05-10T20:16:52.587Z,9.00
2023-05-10T20:18:46.793Z,8.70
2023-05-10T20:20:39.916Z,8.10
2023-05-10T20:22:32.806Z,8.00
2023-05-10T20:24:25.606Z,7.70
2023-05-10T20:26:18.594Z,8.30
2023-05-10T20:28:13.285Z,8.00
2023-05-10T20:30:07.089Z,7.80
2023-05-10T20:32:02.920Z,7.40
2023-05-10T20:33:56.536Z,8.30
2023-05-10T20:35:51.434Z,8.40
2023-05-10T20:37:44.311Z,7.40
2023-05-10T20:39:37.424Z,8.20
2023-05-10T20:41:30.273Z,7.50
2023-05-10T20:43:23.114Z,7.60
2023-05-10T20:45:16.269Z,8.30
2023-05-10T20:47:09.217Z,7.70
2023-05-10T20:49:02.688Z,7.80
2023-05-10T20:50:55.829Z,7.20
2023-05-10T20:52:51.107Z,7.30
2023-05-10T20:54:43.984Z,7.10
2023-05-10T20:56:36.936Z,7.00
2023-05-10T20:58:29.776Z,7.00
2023-05-10T21:00:22.743Z,6.80
2023-05-10T21:02:15.562Z,7.30
2023-05-10T21:04:08.432Z,6.80
2023-05-10T21:06:01.621Z,6.70
2023-05-10T21:07:54.513Z,6.90
2023-05-10T21:09:47.374Z,6.30
2023-05-10T21:11:40.348Z,6.60
2023-05-10T21:13:33.365Z,6.50
2023-05-10T21:15:26.621Z,7.10
2023-05-10T21:17:20.198Z,7.30
2023-05-10T21:19:13.431Z,7.60
2023-05-10T21:21:06.380Z,7.10
2023-05-10T21:22:59.347Z,7.80
2023-05-10T21:24:52.590Z,7.20
2023-05-10T21:26:45.435Z,7.40
2023-05-10T21:28:40.085Z,6.80
2023-05-10T21:30:34.090Z,7.30
2023-05-10T21:32:28.207Z,7.70
2023-05-10T21:34:24.492Z,7.80
2023-05-10T21:36:17.435Z,7.90
2023-05-10T21:38:10.575Z,8.30
2023-05-10T21:40:04.908Z,8.30
2023-05-10T21:41:59.754Z,7.30
2023-05-10T21:43:52.656Z,8.60
2023-05-10T21:45:45.559Z,7.80
2023-05-10T21:47:38.634Z,7.80
2023-05-10T21:49:31.558Z,8.60
2023-05-10T21:51:24.414Z,8.50
2023-05-10T21:53:17.252Z,8.30
2023-05-10T21:55:10.507Z,8.20
2023-05-10T21:57:03.455Z,7.70
2023-05-10T21:58:56.403Z,8.10
2023-05-10T22:00:49.757Z,7.90
2023-05-10T22:02:42.837Z,8.00
2023-05-10T22:04:35.761Z,7.80
2023-05-10T22:06:28.707Z,8.30
2023-05-10T22:08:22.407Z,8.00
2023-05-10T22:10:16.238Z,8.50
2023-05-10T22:12:09.439Z,8.60
2023-05-10T22:14:02.342Z,8.40
2023-05-10T22:15:55.123Z,7.90
2023-05-10T22:17:48.213Z,9.20
2023-05-10T22:19:41.137Z,8.70
2023-05-10T22:21:33.932Z,8.40
2023-05-10T22:23:26.885Z,8.10
2023-05-10T22:25:19.724Z,8.50
2023-05-10T22:27:12.888Z,8.60
2023-05-10T22:29:05.931Z,8.60
2023-05-10T22:30:58.777Z,8.10
2023-05-10T22:32:51.687Z,9.10
2023-05-10T22:34:44.570Z,8.30
2023-05-10T22:36:37.824Z,8.20
2023-05-10T22:38:30.671Z,8.70
2023-05-10T22:40:23.635Z,8.90
2023-05-10T22:42:16.701Z,8.50
2023-05-10T22:44:09.619Z,8.40
2023-05-10T22:46:02.504Z,8.50
2023-05-10T22:47:55.524Z,8.60
2023-05-10T22:49:48.568Z,8.00
2023-05-10T22:51:41.510Z,8.30
2023-05-10T22:53:34.463Z,8.20
2023-05-10T22:55:27.580Z,8.20
2023-05-10T22:57:20.565Z,8.00
2023-05-10T22:59:13.503Z,8.10
2023-05-10T23:01:06.355Z,7.50
2023-05-10T23:02:59.342Z,7.80
2023-05-10T23:04:52.280Z,9.00
2023-05-10T23:06:46.018Z,7.90
2023-05-10T23:08:38.863Z,8.50
2023-05-10T23:10:31.815Z,7.80
2023-05-10T23:12:25.269Z,7.90
2023-05-10T23:14:18.114Z,8.40
2023-05-10T23:16:11.002Z,8.30
2023-05-10T23:18:05.969Z,7.60
2023-05-10T23:19:59.005Z,7.80
2023-05-10T23:21:51.879Z,7.70
2023-05-10T23:23:44.810Z,7.50
2023-05-10T23:25:38.157Z,7.70
2023-05-10T23:27:31.147Z,7.50
2023-05-10T23:29:26.360Z,7.30
2023-05-10T23:31:19.408Z,7.30
2023-05-10T23:33:14.556Z,7.20
2023-05-10T23:35:08.533Z,7.40
2023-05-10T23:37:01.483Z,7.00
2023-05-10T23:38:54.325Z,6.90
2023-05-10T23:40:50.986Z,6.90
2023-05-10T23:42:43.811Z,7.30
2023-05-10T23:44:36.660Z,6.50
2023-05-10T23:46:29.502Z,7.30
2023-05-10T23:48:22.554Z,7.20
2023-05-10T23:50:15.659Z,6.70
2023-05-10T23:52:08.960Z,6.50
2023-05-10T23:54:02.194Z,6.60
2023-05-10T23:55:54.961Z,6.90
2023-05-10T23:57:47.809Z,6.70
2023-05-10T23:59:40.572Z,6.80
